sensor_id;sensor_type;location;lat;lon;timestamp;temperature;humidity
33368;DHT22;19724;51.114;13.906;2023-04-24T00:00:54;10.50;99.90
33368;DHT22;19724;51.114;13.906;2023-04-24T00:03:25;10.40;99.90
33368;DHT22;19724;51.114;13.906;2023-04-24T00:05:51;10.40;99.90
33368;DHT22;19724;51.114;13.906;2023-04-24T00:08:17;10.40;99.90
33368;DHT22;19724;51.114;13.906;2023-04-24T00:10:43;10.50;99.90
33368;DHT22;19724;51.114;13.906;2023-04-24T00:13:08;10.50;99.90
33368;DHT22;19724;51.114;13.906;2023-04-24T00:15:34;10.50;99.90
33368;DHT22;19724;51.114;13.906;2023-04-24T00:17:59;10.50;99.90
33368;DHT22;19724;51.114;13.906;2023-04-24T00:20:27;10.50;99.90
33368;DHT22;19724;51.114;13.906;2023-04-24T00:22:54;10.60;99.90
33368;DHT22;19724;51.114;13.906;2023-04-24T00:25:20;10.70;99.90
33368;DHT22;19724;51.114;13.906;2023-04-24T00:27:45;10.60;99.90
33368;DHT22;19724;51.114;13.906;2023-04-24T00:30:11;10.70;99.90
33368;DHT22;19724;51.114;13.906;2023-04-24T00:32:36;10.70;99.90
33368;DHT22;19724;51.114;13.906;2023-04-24T00:35:02;10.70;99.90
33368;DHT22;19724;51.114;13.906;2023-04-24T00:37:28;10.70;99.90
33368;DHT22;19724;51.114;13.906;2023-04-24T00:39:53;10.70;99.90
33368;DHT22;19724;51.114;13.906;2023-04-24T00:42:19;10.70;99.90
33368;DHT22;19724;51.114;13.906;2023-04-24T00:44:45;10.80;99.90
33368;DHT22;19724;51.114;13.906;2023-04-24T00:47:12;10.80;99.90
33368;DHT22;19724;51.114;13.906;2023-04-24T00:49:38;10.80;99.90
33368;DHT22;19724;51.114;13.906;2023-04-24T00:52:03;10.70;99.90
33368;DHT22;19724;51.114;13.906;2023-04-24T00:54:32;10.80;99.90
33368;DHT22;19724;51.114;13.906;2023-04-24T00:56:58;10.70;99.90
33368;DHT22;19724;51.114;13.906;2023-04-24T00:59:24;10.70;99.90
33368;DHT22;19724;51.114;13.906;2023-04-24T01:01:50;10.70;99.90
33368;DHT22;19724;51.114;13.906;2023-04-24T01:04:16;10.70;99.90
33368;DHT22;19724;51.114;13.906;2023-04-24T01:06:43;10.70;99.90
33368;DHT22;19724;51.114;13.906;2023-04-24T01:09:10;10.70;99.90
33368;DHT22;19724;51.114;13.906;2023-04-24T01:11:37;10.70;99.90
33368;DHT22;19724;51.114;13.906;2023-04-24T01:14:03;10.80;99.90
33368;DHT22;19724;51.114;13.906;2023-04-24T01:16:28;10.80;99.90
33368;DHT22;19724;51.114;13.906;2023-04-24T01:18:54;10.80;99.90
33368;DHT22;19724;51.114;13.906;2023-04-24T01:21:20;10.90;99.90
33368;DHT22;19724;51.114;13.906;2023-04-24T01:23:46;10.90;99.90
33368;DHT22;19724;51.114;13.906;2023-04-24T01:26:16;10.90;99.90
33368;DHT22;19724;51.114;13.906;2023-04-24T01:28:42;10.90;99.90
33368;DHT22;19724;51.114;13.906;2023-04-24T01:31:07;10.90;99.90
33368;DHT22;19724;51.114;13.906;2023-04-24T01:33:33;10.90;99.90
33368;DHT22;19724;51.114;13.906;2023-04-24T01:35:59;11.00;99.90
33368;DHT22;19724;51.114;13.906;2023-04-24T01:38:25;11.00;99.90
33368;DHT22;19724;51.114;13.906;2023-04-24T01:40:51;11.00;99.90
33368;DHT22;19724;51.114;13.906;2023-04-24T01:43:16;10.90;99.90
33368;DHT22;19724;51.114;13.906;2023-04-24T01:45:43;11.10;99.90
33368;DHT22;19724;51.114;13.906;2023-04-24T01:48:08;11.00;99.90
33368;DHT22;19724;51.114;13.906;2023-04-24T01:50:34;11.00;99.90
33368;DHT22;19724;51.114;13.906;2023-04-24T01:53:00;11.00;99.90
33368;DHT22;19724;51.114;13.906;2023-04-24T01:55:25;11.00;99.90
33368;DHT22;19724;51.114;13.906;2023-04-24T01:57:52;11.10;99.90
33368;DHT22;19724;51.114;13.906;2023-04-24T02:00:20;11.00;99.90
33368;DHT22;19724;51.114;13.906;2023-04-24T02:02:45;11.10;99.90
33368;DHT22;19724;51.114;13.906;2023-04-24T02:05:11;11.10;99.90
33368;DHT22;19724;51.114;13.906;2023-04-24T02:07:36;11.10;99.90
33368;DHT22;19724;51.114;13.906;2023-04-24T02:10:02;11.10;99.90
33368;DHT22;19724;51.114;13.906;2023-04-24T02:12:29;11.10;99.90
33368;DHT22;19724;51.114;13.906;2023-04-24T02:14:55;11.10;99.90
33368;DHT22;19724;51.114;13.906;2023-04-24T02:17:20;11.10;99.90
33368;DHT22;19724;51.114;13.906;2023-04-24T02:19:46;11.10;99.90
33368;DHT22;19724;51.114;13.906;2023-04-24T02:22:12;11.10;99.90
33368;DHT22;19724;51.114;13.906;2023-04-24T02:24:38;11.10;99.90
33368;DHT22;19724;51.114;13.906;2023-04-24T02:27:03;11.10;99.90
33368;DHT22;19724;51.114;13.906;2023-04-24T02:29:30;11.20;99.90
33368;DHT22;19724;51.114;13.906;2023-04-24T02:31:55;11.10;99.90
33368;DHT22;19724;51.114;13.906;2023-04-24T02:34:21;11.10;99.90
33368;DHT22;19724;51.114;13.906;2023-04-24T02:36:46;11.20;99.90
33368;DHT22;19724;51.114;13.906;2023-04-24T02:39:12;11.20;99.90
33368;DHT22;19724;51.114;13.906;2023-04-24T02:41:38;11.30;99.90
33368;DHT22;19724;51.114;13.906;2023-04-24T02:44:04;11.20;99.90
33368;DHT22;19724;51.114;13.906;2023-04-24T02:46:29;11.30;99.90
33368;DHT22;19724;51.114;13.906;2023-04-24T02:48:55;11.20;99.90
33368;DHT22;19724;51.114;13.906;2023-04-24T02:51:20;11.20;99.90
33368;DHT22;19724;51.114;13.906;2023-04-24T02:53:46;11.20;99.90
33368;DHT22;19724;51.114;13.906;2023-04-24T02:56:11;11.30;99.90
33368;DHT22;19724;51.114;13.906;2023-04-24T02:58:40;11.30;99.90
33368;DHT22;19724;51.114;13.906;2023-04-24T03:01:05;11.20;99.90
33368;DHT22;19724;51.114;13.906;2023-04-24T03:03:31;11.30;99.90
33368;DHT22;19724;51.114;13.906;2023-04-24T03:05:56;11.20;99.90
33368;DHT22;19724;51.114;13.906;2023-04-24T03:08:22;11.20;99.90
33368;DHT22;19724;51.114;13.906;2023-04-24T03:10:48;11.30;99.90
33368;DHT22;19724;51.114;13.906;2023-04-24T03:13:15;11.30;99.90
33368;DHT22;19724;51.114;13.906;2023-04-24T03:15:40;11.30;99.90
33368;DHT22;19724;51.114;13.906;2023-04-24T03:18:06;11.30;99.90
33368;DHT22;19724;51.114;13.906;2023-04-24T03:20:31;11.20;99.90
33368;DHT22;19724;51.114;13.906;2023-04-24T03:22:57;11.20;99.90
33368;DHT22;19724;51.114;13.906;2023-04-24T03:25:22;11.20;99.90
33368;DHT22;19724;51.114;13.906;2023-04-24T03:27:48;11.20;99.90
33368;DHT22;19724;51.114;13.906;2023-04-24T03:30:13;11.20;99.90
33368;DHT22;19724;51.114;13.906;2023-04-24T03:32:39;11.20;99.90
33368;DHT22;19724;51.114;13.906;2023-04-24T03:35:08;11.20;99.90
33368;DHT22;19724;51.114;13.906;2023-04-24T03:37:34;11.20;99.90
33368;DHT22;19724;51.114;13.906;2023-04-24T03:40:01;11.20;99.90
33368;DHT22;19724;51.114;13.906;2023-04-24T03:42:26;11.20;99.90
33368;DHT22;19724;51.114;13.906;2023-04-24T03:44:52;11.20;99.90
33368;DHT22;19724;51.114;13.906;2023-04-24T03:47:17;11.20;99.90
33368;DHT22;19724;51.114;13.906;2023-04-24T03:49:42;11.20;99.90
33368;DHT22;19724;51.114;13.906;2023-04-24T03:52:08;11.20;99.90
33368;DHT22;19724;51.114;13.906;2023-04-24T03:54:33;11.20;99.90
33368;DHT22;19724;51.114;13.906;2023-04-24T03:56:59;11.20;99.90
33368;DHT22;19724;51.114;13.906;2023-04-24T03:59:25;11.20;99.90
33368;DHT22;19724;51.114;13.906;2023-04-24T04:01:50;11.20;99.90
33368;DHT22;19724;51.114;13.906;2023-04-24T04:04:16;11.20;99.90
33368;DHT22;19724;51.114;13.906;2023-04-24T04:06:42;11.20;99.90
33368;DHT22;19724;51.114;13.906;2023-04-24T04:09:07;11.10;99.90
33368;DHT22;19724;51.114;13.906;2023-04-24T04:11:33;11.10;99.90
33368;DHT22;19724;51.114;13.906;2023-04-24T04:14:00;11.10;99.90
33368;DHT22;19724;51.114;13.906;2023-04-24T04:16:26;11.10;99.90
33368;DHT22;19724;51.114;13.906;2023-04-24T04:18:51;11.10;99.90
33368;DHT22;19724;51.114;13.906;2023-04-24T04:21:16;11.20;99.90
33368;DHT22;19724;51.114;13.906;2023-04-24T04:23:42;11.30;99.90
33368;DHT22;19724;51.114;13.906;2023-04-24T04:26:07;11.40;99.90
33368;DHT22;19724;51.114;13.906;2023-04-24T04:28:33;11.50;99.90
33368;DHT22;19724;51.114;13.906;2023-04-24T04:30:58;11.50;99.90
33368;DHT22;19724;51.114;13.906;2023-04-24T04:33:24;11.60;99.90
33368;DHT22;19724;51.114;13.906;2023-04-24T04:35:51;11.70;99.90
33368;DHT22;19724;51.114;13.906;2023-04-24T04:38:18;11.80;99.90
33368;DHT22;19724;51.114;13.906;2023-04-24T04:40:44;11.90;99.90
33368;DHT22;19724;51.114;13.906;2023-04-24T04:43:09;11.90;99.90
33368;DHT22;19724;51.114;13.906;2023-04-24T04:46:02;12.00;99.90
33368;DHT22;19724;51.114;13.906;2023-04-24T04:48:28;12.00;99.90
33368;DHT22;19724;51.114;13.906;2023-04-24T04:50:56;12.10;99.90
33368;DHT22;19724;51.114;13.906;2023-04-24T04:53:22;12.10;99.90
33368;DHT22;19724;51.114;13.906;2023-04-24T04:55:47;12.20;99.90
33368;DHT22;19724;51.114;13.906;2023-04-24T04:58:13;12.30;99.90
33368;DHT22;19724;51.114;13.906;2023-04-24T05:00:38;12.40;99.90
33368;DHT22;19724;51.114;13.906;2023-04-24T05:03:04;12.40;99.90
33368;DHT22;19724;51.114;13.906;2023-04-24T05:05:30;12.50;99.90
33368;DHT22;19724;51.114;13.906;2023-04-24T05:07:55;12.50;99.90
33368;DHT22;19724;51.114;13.906;2023-04-24T05:10:21;12.60;99.90
33368;DHT22;19724;51.114;13.906;2023-04-24T05:12:46;12.60;99.90
33368;DHT22;19724;51.114;13.906;2023-04-24T05:15:12;12.70;99.90
33368;DHT22;19724;51.114;13.906;2023-04-24T05:17:37;12.70;99.90
33368;DHT22;19724;51.114;13.906;2023-04-24T05:20:05;12.80;99.90
33368;DHT22;19724;51.114;13.906;2023-04-24T05:22:31;12.80;99.90
33368;DHT22;19724;51.114;13.906;2023-04-24T05:24:57;12.80;99.90
33368;DHT22;19724;51.114;13.906;2023-04-24T05:27:22;12.90;99.90
33368;DHT22;19724;51.114;13.906;2023-04-24T05:29:48;12.90;99.90
33368;DHT22;19724;51.114;13.906;2023-04-24T05:32:13;13.00;99.90
33368;DHT22;19724;51.114;13.906;2023-04-24T05:34:39;13.00;99.90
33368;DHT22;19724;51.114;13.906;2023-04-24T05:37:05;13.10;99.90
33368;DHT22;19724;51.114;13.906;2023-04-24T05:39:33;13.10;99.90
33368;DHT22;19724;51.114;13.906;2023-04-24T05:41:59;13.20;99.90
33368;DHT22;19724;51.114;13.906;2023-04-24T05:44:27;13.20;99.90
33368;DHT22;19724;51.114;13.906;2023-04-24T05:46:52;13.30;99.90
33368;DHT22;19724;51.114;13.906;2023-04-24T05:49:18;13.30;99.90
33368;DHT22;19724;51.114;13.906;2023-04-24T05:51:43;13.40;99.90
33368;DHT22;19724;51.114;13.906;2023-04-24T05:54:09;13.40;99.90
33368;DHT22;19724;51.114;13.906;2023-04-24T05:56:37;13.50;99.90
33368;DHT22;19724;51.114;13.906;2023-04-24T05:59:02;13.50;99.90
33368;DHT22;19724;51.114;13.906;2023-04-24T06:01:28;13.60;99.90
33368;DHT22;19724;51.114;13.906;2023-04-24T06:03:55;13.60;99.90
33368;DHT22;19724;51.114;13.906;2023-04-24T06:06:20;13.70;99.90
33368;DHT22;19724;51.114;13.906;2023-04-24T06:08:46;13.70;99.90
33368;DHT22;19724;51.114;13.906;2023-04-24T06:11:11;13.80;99.90
33368;DHT22;19724;51.114;13.906;2023-04-24T06:13:37;13.80;99.90
33368;DHT22;19724;51.114;13.906;2023-04-24T06:16:02;13.90;99.90
33368;DHT22;19724;51.114;13.906;2023-04-24T06:18:28;13.90;99.90
33368;DHT22;19724;51.114;13.906;2023-04-24T06:20:53;14.00;99.90
33368;DHT22;19724;51.114;13.906;2023-04-24T06:23:20;14.00;99.90
33368;DHT22;19724;51.114;13.906;2023-04-24T06:25:45;14.10;99.90
33368;DHT22;19724;51.114;13.906;2023-04-24T06:28:11;14.20;99.90
33368;DHT22;19724;51.114;13.906;2023-04-24T06:30:37;14.20;99.90
33368;DHT22;19724;51.114;13.906;2023-04-24T06:33:02;14.30;99.90
33368;DHT22;19724;51.114;13.906;2023-04-24T06:35:28;14.40;99.90
33368;DHT22;19724;51.114;13.906;2023-04-24T06:37:54;14.50;99.90
33368;DHT22;19724;51.114;13.906;2023-04-24T06:40:21;14.60;99.90
33368;DHT22;19724;51.114;13.906;2023-04-24T06:42:47;14.70;99.90
33368;DHT22;19724;51.114;13.906;2023-04-24T06:45:12;14.70;99.90
33368;DHT22;19724;51.114;13.906;2023-04-24T06:47:37;14.80;99.90
33368;DHT22;19724;51.114;13.906;2023-04-24T06:50:04;14.80;99.90
33368;DHT22;19724;51.114;13.906;2023-04-24T06:52:29;14.90;99.90
33368;DHT22;19724;51.114;13.906;2023-04-24T06:55:05;15.00;99.90
33368;DHT22;19724;51.114;13.906;2023-04-24T06:57:31;15.10;99.90
33368;DHT22;19724;51.114;13.906;2023-04-24T06:59:56;15.20;99.90
33368;DHT22;19724;51.114;13.906;2023-04-24T07:02:22;15.30;99.90
33368;DHT22;19724;51.114;13.906;2023-04-24T07:04:47;15.40;99.90
33368;DHT22;19724;51.114;13.906;2023-04-24T07:07:13;15.50;99.90
33368;DHT22;19724;51.114;13.906;2023-04-24T07:09:40;15.60;99.90
33368;DHT22;19724;51.114;13.906;2023-04-24T07:12:09;15.60;99.90
33368;DHT22;19724;51.114;13.906;2023-04-24T07:14:38;15.70;99.90
33368;DHT22;19724;51.114;13.906;2023-04-24T07:17:04;15.80;99.90
33368;DHT22;19724;51.114;13.906;2023-04-24T07:19:31;15.90;99.90
33368;DHT22;19724;51.114;13.906;2023-04-24T07:21:56;16.00;99.90
33368;DHT22;19724;51.114;13.906;2023-04-24T07:24:24;16.10;99.90
33368;DHT22;19724;51.114;13.906;2023-04-24T07:26:51;16.10;99.90
33368;DHT22;19724;51.114;13.906;2023-04-24T07:29:17;16.20;99.90
33368;DHT22;19724;51.114;13.906;2023-04-24T07:31:43;16.30;99.90
33368;DHT22;19724;51.114;13.906;2023-04-24T07:34:08;16.40;99.90
33368;DHT22;19724;51.114;13.906;2023-04-24T07:36:34;16.50;99.90
33368;DHT22;19724;51.114;13.906;2023-04-24T07:38:59;16.60;99.90
33368;DHT22;19724;51.114;13.906;2023-04-24T07:41:25;16.70;99.90
33368;DHT22;19724;51.114;13.906;2023-04-24T07:43:50;16.80;99.90
33368;DHT22;19724;51.114;13.906;2023-04-24T07:46:16;16.90;99.90
33368;DHT22;19724;51.114;13.906;2023-04-24T07:48:42;17.00;99.90
33368;DHT22;19724;51.114;13.906;2023-04-24T07:51:07;17.10;99.90
33368;DHT22;19724;51.114;13.906;2023-04-24T07:53:35;17.20;99.90
33368;DHT22;19724;51.114;13.906;2023-04-24T07:56:00;17.30;99.90
33368;DHT22;19724;51.114;13.906;2023-04-24T07:58:26;17.30;99.90
33368;DHT22;19724;51.114;13.906;2023-04-24T08:00:51;17.30;99.90
33368;DHT22;19724;51.114;13.906;2023-04-24T08:03:17;17.30;99.90
33368;DHT22;19724;51.114;13.906;2023-04-24T08:05:44;17.30;99.90
33368;DHT22;19724;51.114;13.906;2023-04-24T08:08:10;17.20;99.90
33368;DHT22;19724;51.114;13.906;2023-04-24T08:10:35;17.30;99.90
33368;DHT22;19724;51.114;13.906;2023-04-24T08:13:01;17.30;99.90
33368;DHT22;19724;51.114;13.906;2023-04-24T08:15:27;17.30;99.90
33368;DHT22;19724;51.114;13.906;2023-04-24T08:17:53;17.30;99.90
33368;DHT22;19724;51.114;13.906;2023-04-24T08:20:18;17.30;99.90
33368;DHT22;19724;51.114;13.906;2023-04-24T08:22:44;17.40;99.90
33368;DHT22;19724;51.114;13.906;2023-04-24T08:25:12;17.50;99.90
33368;DHT22;19724;51.114;13.906;2023-04-24T08:27:37;17.50;99.90
33368;DHT22;19724;51.114;13.906;2023-04-24T08:30:04;17.50;99.90
33368;DHT22;19724;51.114;13.906;2023-04-24T08:32:30;17.60;99.90
33368;DHT22;19724;51.114;13.906;2023-04-24T08:34:56;17.70;99.90
33368;DHT22;19724;51.114;13.906;2023-04-24T08:37:22;17.70;99.90
33368;DHT22;19724;51.114;13.906;2023-04-24T08:39:49;17.80;99.90
33368;DHT22;19724;51.114;13.906;2023-04-24T08:42:16;17.90;99.90
33368;DHT22;19724;51.114;13.906;2023-04-24T08:44:42;17.90;99.90
33368;DHT22;19724;51.114;13.906;2023-04-24T08:47:08;17.90;99.90
33368;DHT22;19724;51.114;13.906;2023-04-24T08:49:33;17.90;99.90
33368;DHT22;19724;51.114;13.906;2023-04-24T08:52:01;17.90;99.90
33368;DHT22;19724;51.114;13.906;2023-04-24T08:54:28;17.80;99.90
33368;DHT22;19724;51.114;13.906;2023-04-24T08:56:59;17.70;99.90
33368;DHT22;19724;51.114;13.906;2023-04-24T08:59:27;17.60;99.90
33368;DHT22;19724;51.114;13.906;2023-04-24T09:01:53;17.40;99.90
33368;DHT22;19724;51.114;13.906;2023-04-24T09:04:20;17.30;99.90
33368;DHT22;19724;51.114;13.906;2023-04-24T09:06:48;17.20;99.90
33368;DHT22;19724;51.114;13.906;2023-04-24T09:09:16;17.00;99.90
33368;DHT22;19724;51.114;13.906;2023-04-24T09:11:43;16.90;99.90
33368;DHT22;19724;51.114;13.906;2023-04-24T09:14:09;16.70;99.90
33368;DHT22;19724;51.114;13.906;2023-04-24T09:16:35;16.50;99.90
33368;DHT22;19724;51.114;13.906;2023-04-24T09:19:01;16.40;99.90
33368;DHT22;19724;51.114;13.906;2023-04-24T09:21:31;16.30;99.90
33368;DHT22;19724;51.114;13.906;2023-04-24T09:23:59;16.30;99.90
33368;DHT22;19724;51.114;13.906;2023-04-24T09:26:25;16.20;99.90
33368;DHT22;19724;51.114;13.906;2023-04-24T09:28:51;16.30;99.90
33368;DHT22;19724;51.114;13.906;2023-04-24T09:31:18;16.30;99.90
33368;DHT22;19724;51.114;13.906;2023-04-24T09:33:58;16.20;99.90
33368;DHT22;19724;51.114;13.906;2023-04-24T09:36:34;16.30;99.90
33368;DHT22;19724;51.114;13.906;2023-04-24T09:39:10;16.40;99.90
33368;DHT22;19724;51.114;13.906;2023-04-24T09:41:50;16.40;99.90
33368;DHT22;19724;51.114;13.906;2023-04-24T09:44:21;16.50;99.90
33368;DHT22;19724;51.114;13.906;2023-04-24T09:46:53;16.60;99.90
33368;DHT22;19724;51.114;13.906;2023-04-24T09:49:31;16.80;99.90
33368;DHT22;19724;51.114;13.906;2023-04-24T09:52:05;17.10;99.90
33368;DHT22;19724;51.114;13.906;2023-04-24T09:54:31;17.30;99.90
33368;DHT22;19724;51.114;13.906;2023-04-24T09:56:56;17.30;99.90
33368;DHT22;19724;51.114;13.906;2023-04-24T09:59:22;17.20;99.90
33368;DHT22;19724;51.114;13.906;2023-04-24T10:01:48;17.20;99.90
33368;DHT22;19724;51.114;13.906;2023-04-24T10:04:19;17.20;99.90
33368;DHT22;19724;51.114;13.906;2023-04-24T10:06:47;17.00;99.90
33368;DHT22;19724;51.114;13.906;2023-04-24T10:09:12;17.00;99.90
33368;DHT22;19724;51.114;13.906;2023-04-24T10:11:45;17.00;99.90
33368;DHT22;19724;51.114;13.906;2023-04-24T10:14:13;17.10;99.90
33368;DHT22;19724;51.114;13.906;2023-04-24T10:16:39;17.10;99.90
33368;DHT22;19724;51.114;13.906;2023-04-24T10:19:06;17.20;99.90
33368;DHT22;19724;51.114;13.906;2023-04-24T10:21:32;17.30;99.90
33368;DHT22;19724;51.114;13.906;2023-04-24T10:23:59;17.40;99.90
33368;DHT22;19724;51.114;13.906;2023-04-24T10:26:28;17.50;99.90
33368;DHT22;19724;51.114;13.906;2023-04-24T10:28:54;17.60;99.90
33368;DHT22;19724;51.114;13.906;2023-04-24T10:31:22;17.50;99.90
33368;DHT22;19724;51.114;13.906;2023-04-24T10:33:49;17.50;99.90
33368;DHT22;19724;51.114;13.906;2023-04-24T10:36:16;17.40;99.90
33368;DHT22;19724;51.114;13.906;2023-04-24T10:38:43;17.40;99.90
33368;DHT22;19724;51.114;13.906;2023-04-24T10:41:12;17.50;99.90
33368;DHT22;19724;51.114;13.906;2023-04-24T10:44:07;17.70;99.90
33368;DHT22;19724;51.114;13.906;2023-04-24T10:46:34;18.10;99.90
33368;DHT22;19724;51.114;13.906;2023-04-24T10:49:04;18.50;99.90
33368;DHT22;19724;51.114;13.906;2023-04-24T10:51:51;18.90;99.90
33368;DHT22;19724;51.114;13.906;2023-04-24T10:56:51;19.50;97.60
33368;DHT22;19724;51.114;13.906;2023-04-24T10:59:27;19.60;95.80
33368;DHT22;19724;51.114;13.906;2023-04-24T11:01:54;19.80;95.60
33368;DHT22;19724;51.114;13.906;2023-04-24T11:04:31;19.90;94.30
33368;DHT22;19724;51.114;13.906;2023-04-24T11:06:57;19.70;93.60
33368;DHT22;19724;51.114;13.906;2023-04-24T11:09:26;19.60;93.30
33368;DHT22;19724;51.114;13.906;2023-04-24T11:12:11;19.60;93.60
33368;DHT22;19724;51.114;13.906;2023-04-24T11:17:32;19.30;93.80
33368;DHT22;19724;51.114;13.906;2023-04-24T11:20:10;19.30;93.80
33368;DHT22;19724;51.114;13.906;2023-04-24T11:22:37;19.30;92.90
33368;DHT22;19724;51.114;13.906;2023-04-24T11:25:04;19.20;92.30
33368;DHT22;19724;51.114;13.906;2023-04-24T11:27:31;19.10;91.80
33368;DHT22;19724;51.114;13.906;2023-04-24T11:29:58;19.00;92.00
33368;DHT22;19724;51.114;13.906;2023-04-24T11:34:56;18.80;92.50
33368;DHT22;19724;51.114;13.906;2023-04-24T11:37:23;18.80;92.20
33368;DHT22;19724;51.114;13.906;2023-04-24T11:39:58;18.70;92.10
33368;DHT22;19724;51.114;13.906;2023-04-24T11:42:24;18.60;92.20
33368;DHT22;19724;51.114;13.906;2023-04-24T11:44:52;18.70;92.40
33368;DHT22;19724;51.114;13.906;2023-04-24T11:47:18;18.80;91.90
33368;DHT22;19724;51.114;13.906;2023-04-24T11:49:44;18.70;92.20
33368;DHT22;19724;51.114;13.906;2023-04-24T11:52:09;18.70;92.60
33368;DHT22;19724;51.114;13.906;2023-04-24T11:54:36;18.60;92.70
33368;DHT22;19724;51.114;13.906;2023-04-24T11:57:04;18.50;92.50
33368;DHT22;19724;51.114;13.906;2023-04-24T11:59:35;18.50;92.60
33368;DHT22;19724;51.114;13.906;2023-04-24T12:02:02;18.40;92.70
33368;DHT22;19724;51.114;13.906;2023-04-24T12:04:40;18.60;92.70
33368;DHT22;19724;51.114;13.906;2023-04-24T12:07:06;19.10;92.80
33368;DHT22;19724;51.114;13.906;2023-04-24T12:09:44;19.80;91.80
33368;DHT22;19724;51.114;13.906;2023-04-24T12:12:15;20.00;90.70
33368;DHT22;19724;51.114;13.906;2023-04-24T12:14:53;20.10;90.10
33368;DHT22;19724;51.114;13.906;2023-04-24T12:19:52;19.90;88.00
33368;DHT22;19724;51.114;13.906;2023-04-24T12:22:22;19.70;88.10
33368;DHT22;19724;51.114;13.906;2023-04-24T12:25:01;19.50;88.10
33368;DHT22;19724;51.114;13.906;2023-04-24T12:27:31;19.30;88.50
33368;DHT22;19724;51.114;13.906;2023-04-24T12:29:58;19.20;90.10
33368;DHT22;19724;51.114;13.906;2023-04-24T12:32:25;18.90;90.10
33368;DHT22;19724;51.114;13.906;2023-04-24T12:34:51;18.70;90.30
33368;DHT22;19724;51.114;13.906;2023-04-24T12:37:17;18.50;89.80
33368;DHT22;19724;51.114;13.906;2023-04-24T12:39:59;18.40;89.80
33368;DHT22;19724;51.114;13.906;2023-04-24T12:42:27;18.30;89.30
33368;DHT22;19724;51.114;13.906;2023-04-24T12:44:57;18.30;90.10
33368;DHT22;19724;51.114;13.906;2023-04-24T12:47:24;18.50;88.20
33368;DHT22;19724;51.114;13.906;2023-04-24T12:49:50;18.50;88.60
33368;DHT22;19724;51.114;13.906;2023-04-24T12:52:21;18.40;86.00
33368;DHT22;19724;51.114;13.906;2023-04-24T12:54:46;18.40;86.60
33368;DHT22;19724;51.114;13.906;2023-04-24T12:57:12;18.30;85.40
33368;DHT22;19724;51.114;13.906;2023-04-24T12:59:37;18.30;84.30
33368;DHT22;19724;51.114;13.906;2023-04-24T13:02:04;18.30;83.70
33368;DHT22;19724;51.114;13.906;2023-04-24T13:04:30;18.70;82.90
33368;DHT22;19724;51.114;13.906;2023-04-24T13:06:56;18.80;83.30
33368;DHT22;19724;51.114;13.906;2023-04-24T13:09:21;19.10;81.20
33368;DHT22;19724;51.114;13.906;2023-04-24T13:11:47;19.50;80.70
33368;DHT22;19724;51.114;13.906;2023-04-24T13:14:12;19.50;78.00
33368;DHT22;19724;51.114;13.906;2023-04-24T13:16:37;19.80;76.20
33368;DHT22;19724;51.114;13.906;2023-04-24T13:19:03;20.00;74.80
33368;DHT22;19724;51.114;13.906;2023-04-24T13:21:29;19.80;73.20
33368;DHT22;19724;51.114;13.906;2023-04-24T13:23:55;19.70;72.70
33368;DHT22;19724;51.114;13.906;2023-04-24T13:26:21;19.40;72.60
33368;DHT22;19724;51.114;13.906;2023-04-24T13:28:46;19.30;72.50
33368;DHT22;19724;51.114;13.906;2023-04-24T13:31:12;19.30;73.60
33368;DHT22;19724;51.114;13.906;2023-04-24T13:33:39;19.30;72.40
33368;DHT22;19724;51.114;13.906;2023-04-24T13:36:04;19.20;70.50
33368;DHT22;19724;51.114;13.906;2023-04-24T13:38:29;19.10;69.50
33368;DHT22;19724;51.114;13.906;2023-04-24T13:40:55;19.00;68.80
33368;DHT22;19724;51.114;13.906;2023-04-24T13:43:21;18.80;68.90
33368;DHT22;19724;51.114;13.906;2023-04-24T13:45:46;18.70;68.90
33368;DHT22;19724;51.114;13.906;2023-04-24T13:48:12;18.70;69.90
33368;DHT22;19724;51.114;13.906;2023-04-24T13:50:41;19.00;70.30
33368;DHT22;19724;51.114;13.906;2023-04-24T13:53:06;19.70;68.90
33368;DHT22;19724;51.114;13.906;2023-04-24T13:55:32;20.30;67.80
33368;DHT22;19724;51.114;13.906;2023-04-24T13:57:57;20.70;64.90
33368;DHT22;19724;51.114;13.906;2023-04-24T14:00:23;20.90;64.60
33368;DHT22;19724;51.114;13.906;2023-04-24T14:02:48;20.90;62.60
33368;DHT22;19724;51.114;13.906;2023-04-24T14:05:14;20.80;62.30
33368;DHT22;19724;51.114;13.906;2023-04-24T14:07:41;20.70;61.50
33368;DHT22;19724;51.114;13.906;2023-04-24T14:10:07;20.60;61.40
33368;DHT22;19724;51.114;13.906;2023-04-24T14:12:34;20.60;59.90
33368;DHT22;19724;51.114;13.906;2023-04-24T14:14:59;20.40;59.30
33368;DHT22;19724;51.114;13.906;2023-04-24T14:17:25;20.40;59.50
33368;DHT22;19724;51.114;13.906;2023-04-24T14:19:50;20.40;59.60
33368;DHT22;19724;51.114;13.906;2023-04-24T14:22:17;20.50;58.50
33368;DHT22;19724;51.114;13.906;2023-04-24T14:24:43;20.50;57.90
33368;DHT22;19724;51.114;13.906;2023-04-24T14:27:08;20.60;56.90
33368;DHT22;19724;51.114;13.906;2023-04-24T14:29:34;20.80;56.40
33368;DHT22;19724;51.114;13.906;2023-04-24T14:31:59;20.90;56.90
33368;DHT22;19724;51.114;13.906;2023-04-24T14:34:24;21.10;56.90
33368;DHT22;19724;51.114;13.906;2023-04-24T14:36:50;21.30;56.20
33368;DHT22;19724;51.114;13.906;2023-04-24T14:39:15;21.60;55.60
33368;DHT22;19724;51.114;13.906;2023-04-24T14:41:41;21.80;55.00
33368;DHT22;19724;51.114;13.906;2023-04-24T14:44:06;22.00;54.40
33368;DHT22;19724;51.114;13.906;2023-04-24T14:46:32;22.20;53.60
33368;DHT22;19724;51.114;13.906;2023-04-24T14:48:57;22.10;53.40
33368;DHT22;19724;51.114;13.906;2023-04-24T14:51:23;21.90;54.00
33368;DHT22;19724;51.114;13.906;2023-04-24T14:53:49;21.50;53.70
33368;DHT22;19724;51.114;13.906;2023-04-24T14:56:15;21.20;53.80
33368;DHT22;19724;51.114;13.906;2023-04-24T14:58:40;21.20;54.80
33368;DHT22;19724;51.114;13.906;2023-04-24T15:01:06;21.50;54.50
33368;DHT22;19724;51.114;13.906;2023-04-24T15:03:31;22.00;54.90
33368;DHT22;19724;51.114;13.906;2023-04-24T15:05:57;22.20;53.80
33368;DHT22;19724;51.114;13.906;2023-04-24T15:08:22;22.20;53.90
33368;DHT22;19724;51.114;13.906;2023-04-24T15:10:49;22.10;53.20
33368;DHT22;19724;51.114;13.906;2023-04-24T15:13:14;21.80;52.60
33368;DHT22;19724;51.114;13.906;2023-04-24T15:15:40;21.80;52.70
33368;DHT22;19724;51.114;13.906;2023-04-24T15:18:07;21.60;52.60
33368;DHT22;19724;51.114;13.906;2023-04-24T15:20:33;21.30;53.00
33368;DHT22;19724;51.114;13.906;2023-04-24T15:22:59;21.20;52.80